createdAt,value
2022-08-05T00:00:53.665Z,65.22
2022-08-05T00:06:06.562Z,65.26
2022-08-05T00:11:23.920Z,64.90
2022-08-05T00:16:36.215Z,63.69
2022-08-05T00:21:54.171Z,63.69
2022-08-05T00:26:55.991Z,63.88
2022-08-05T00:32:12.838Z,63.46
2022-08-05T00:37:18.052Z,63.47
2022-08-05T00:42:36.824Z,63.64
2022-08-05T00:47:56.706Z,64.04
2022-08-05T00:53:00.606Z,61.76
2022-08-05T00:58:04.670Z,63.18
2022-08-05T01:03:19.687Z,64.14
2022-08-05T01:08:40.455Z,64.58
2022-08-05T01:14:08.735Z,65.02
2022-08-05T01:19:56.106Z,64.91
2022-08-05T01:25:40.199Z,64.71
2022-08-05T01:30:53.963Z,64.36
2022-08-05T01:35:59.208Z,64.42
2022-08-05T01:41:03.493Z,64.43
2022-08-05T01:46:41.476Z,64.68
2022-08-05T01:51:36.142Z,64.95
2022-08-05T01:58:09.488Z,64.51
2022-08-05T02:02:04.551Z,64.35
2022-08-05T02:07:12.727Z,64.67
2022-08-05T02:12:54.711Z,64.91
2022-08-05T02:18:27.998Z,64.65
2022-08-05T02:23:29.108Z,64.46
2022-08-05T02:28:41.725Z,64.47
2022-08-05T02:33:57.751Z,64.02
2022-08-05T02:39:10.256Z,64.01
2022-08-05T02:44:38.258Z,64.36
2022-08-05T02:49:42.294Z,63.69
2022-08-05T02:55:10.667Z,63.99
2022-08-05T03:00:13.568Z,63.27
2022-08-05T03:05:16.025Z,63.10
2022-08-05T03:10:24.349Z,62.48
2022-08-05T03:15:26.661Z,62.94
2022-08-05T03:20:29.890Z,62.32
2022-08-05T03:26:04.663Z,62.11
2022-08-05T03:30:56.402Z,61.53
2022-08-05T03:35:59.646Z,62.46
2022-08-05T03:41:08.228Z,62.07
2022-08-05T03:46:12.508Z,62.35
2022-08-05T03:52:38.875Z,62.38
2022-08-05T03:57:41.122Z,61.68
2022-08-05T04:02:52.292Z,62.07
2022-08-05T04:08:02.233Z,62.42
2022-08-05T04:13:06.437Z,62.63
2022-08-05T04:18:09.708Z,62.73
2022-08-05T04:23:12.446Z,63.00
2022-08-05T04:28:14.371Z,63.68
2022-08-05T04:34:17.302Z,63.80
2022-08-05T04:39:05.715Z,63.63
2022-08-05T04:44:09.491Z,63.90
2022-08-05T04:49:14.478Z,64.40
2022-08-05T04:54:16.489Z,64.98
2022-08-05T04:59:24.097Z,64.94
2022-08-05T05:04:43.930Z,65.17
2022-08-05T05:09:49.615Z,65.11
2022-08-05T05:14:52.471Z,64.43
2022-08-05T05:19:56.437Z,63.96
2022-08-05T05:25:00.128Z,63.65
2022-08-05T05:30:05.291Z,63.33
2022-08-05T05:35:07.358Z,63.69
2022-08-05T05:40:10.795Z,63.67
2022-08-05T05:45:14.462Z,63.02
2022-08-05T05:50:19.813Z,62.42
2022-08-05T05:55:21.729Z,63.16
2022-08-05T06:00:31.433Z,63.14
2022-08-05T06:05:33.532Z,62.68
2022-08-05T06:10:37.399Z,61.68
2022-08-05T06:16:31.388Z,61.65
2022-08-05T06:21:16.566Z,59.55
2022-08-05T06:26:21.405Z,59.44
2022-08-05T06:31:48.715Z,59.88
2022-08-05T06:36:57.844Z,60.23
2022-08-05T06:42:04.631Z,59.65
2022-08-05T06:47:06.696Z,58.68
2022-08-05T06:52:36.978Z,56.84
2022-08-05T06:57:57.385Z,56.65
2022-08-05T07:02:56.075Z,56.30
2022-08-05T07:07:57.669Z,56.00
2022-08-05T07:13:58.255Z,54.56
2022-08-05T07:18:39.821Z,51.31
2022-08-05T07:23:52.184Z,50.91
2022-08-05T07:28:54.017Z,50.50
2022-08-05T07:33:55.622Z,48.60
2022-08-05T07:39:05.662Z,48.53
2022-08-05T07:44:18.573Z,48.14
2022-08-05T07:49:21.128Z,49.52
2022-08-05T07:54:30.734Z,48.94
2022-08-05T07:59:39.880Z,48.89
2022-08-05T08:04:43.008Z,49.03
2022-08-05T08:09:47.001Z,49.92
2022-08-05T08:14:49.739Z,47.38
2022-08-05T08:20:42.778Z,48.33
2022-08-05T08:25:27.012Z,47.36
2022-08-05T08:30:49.510Z,46.87
2022-08-05T08:35:52.828Z,43.48
2022-08-05T08:41:04.266Z,44.11
2022-08-05T08:46:06.419Z,45.44
2022-08-05T08:51:30.649Z,45.41
2022-08-05T08:56:33.653Z,44.44
2022-08-05T09:01:37.704Z,44.09
2022-08-05T09:06:44.460Z,44.06
2022-08-05T09:11:57.804Z,45.23
2022-08-05T09:17:09.647Z,45.41
2022-08-05T09:23:19.419Z,46.06
2022-08-05T09:28:24.441Z,47.02
2022-08-05T09:33:51.138Z,46.15
2022-08-05T09:39:02.383Z,46.47
2022-08-05T09:44:04.277Z,47.60
2022-08-05T09:49:54.447Z,48.12
2022-08-05T09:55:56.165Z,48.10
2022-08-05T10:00:31.115Z,48.55
2022-08-05T10:05:33.507Z,48.37
2022-08-05T10:17:36.848Z,48.30
2022-08-05T10:22:37.960Z,47.64
2022-08-05T10:28:13.002Z,48.48
2022-08-05T10:33:09.400Z,49.17
2022-08-05T10:38:19.657Z,49.17
2022-08-05T10:43:35.849Z,49.67
2022-08-05T10:48:52.807Z,49.03
2022-08-05T10:54:02.060Z,49.53
2022-08-05T11:00:01.819Z,49.32
2022-08-05T11:04:55.325Z,48.81
2022-08-05T11:10:03.705Z,48.56
2022-08-05T11:15:21.697Z,49.19
2022-08-05T11:20:32.628Z,48.51
2022-08-05T11:26:04.616Z,47.24
2022-08-05T11:30:58.427Z,47.36
2022-08-05T11:36:08.708Z,48.28
2022-08-05T11:41:56.403Z,45.44
2022-08-05T11:46:58.188Z,48.12
2022-08-05T11:52:01.085Z,48.13
2022-08-05T11:57:07.648Z,46.25
2022-08-05T12:02:23.725Z,47.28
2022-08-05T12:08:10.444Z,47.02
2022-08-05T12:12:58.479Z,47.49
2022-08-05T12:18:09.963Z,44.70
2022-08-05T12:23:12.862Z,44.62
2022-08-05T12:28:30.988Z,43.48
2022-08-05T12:33:36.237Z,43.09
2022-08-05T12:38:40.261Z,42.31
2022-08-05T12:43:55.219Z,42.60
2022-08-05T12:49:13.802Z,40.83
2022-08-05T12:54:26.702Z,41.22
2022-08-05T13:00:08.246Z,42.56
2022-08-05T13:04:55.608Z,44.39
2022-08-05T13:10:01.465Z,50.22
2022-08-05T13:15:06.874Z,51.39
2022-08-05T13:20:23.614Z,49.16
2022-08-05T13:25:52.520Z,47.87
2022-08-05T13:30:48.519Z,48.35
2022-08-05T13:35:54.865Z,47.95
2022-08-05T13:41:03.939Z,48.12
2022-08-05T13:46:05.907Z,48.96
2022-08-05T13:51:09.609Z,47.14
2022-08-05T13:56:18.357Z,47.14
2022-08-05T14:01:25.902Z,44.62
2022-08-05T14:06:38.045Z,45.12
2022-08-05T14:12:04.216Z,45.52
2022-08-05T14:17:04.463Z,45.58
2022-08-05T14:22:12.082Z,45.82
2022-08-05T14:27:17.758Z,44.32
2022-08-05T14:32:27.851Z,42.90
2022-08-05T14:37:45.260Z,42.14
2022-08-05T14:42:50.464Z,42.64
2022-08-05T14:48:03.138Z,39.58
2022-08-05T14:53:06.361Z,39.95
2022-08-05T14:58:11.213Z,39.71
2022-08-05T15:03:14.382Z,40.88
2022-08-05T15:08:58.353Z,41.55
2022-08-05T15:13:44.933Z,41.53
2022-08-05T15:18:48.255Z,41.84
2022-08-05T15:23:49.934Z,43.26
2022-08-05T15:28:53.118Z,40.99
2022-08-05T15:34:18.811Z,40.76
2022-08-05T15:40:58.875Z,42.08
2022-08-05T15:44:41.543Z,42.02
2022-08-05T15:49:56.617Z,41.66
2022-08-05T15:55:00.906Z,40.56
2022-08-05T16:00:08.088Z,39.97
2022-08-05T16:05:09.794Z,41.11
2022-08-05T16:10:12.877Z,42.24
2022-08-05T16:15:18.541Z,40.98
2022-08-05T16:20:20.475Z,40.99
2022-08-05T16:25:22.177Z,40.49
2022-08-05T16:30:36.182Z,40.27
2022-08-05T16:35:42.281Z,42.40
2022-08-05T16:40:51.990Z,42.32
2022-08-05T16:46:07.662Z,41.94
2022-08-05T16:51:15.962Z,42.13
2022-08-05T16:56:18.332Z,41.71
2022-08-05T17:01:21.689Z,41.59
2022-08-05T17:06:26.061Z,41.10
2022-08-05T17:11:29.249Z,40.92
2022-08-05T17:16:38.010Z,40.95
2022-08-05T17:21:40.077Z,40.20
2022-08-05T17:26:41.908Z,41.56
2022-08-05T17:31:58.455Z,40.58
2022-08-05T17:37:00.812Z,40.02
2022-08-05T17:42:18.621Z,39.84
2022-08-05T17:47:23.663Z,42.04
2022-08-05T17:52:29.663Z,41.56
2022-08-05T17:57:31.530Z,41.50
2022-08-05T18:02:34.703Z,41.58
2022-08-05T18:07:41.618Z,41.22
2022-08-05T18:12:44.042Z,41.63
2022-08-05T18:17:58.926Z,41.13
2022-08-05T18:23:09.124Z,42.07
2022-08-05T18:28:16.590Z,41.73
2022-08-05T18:33:23.078Z,40.94
2022-08-05T18:38:25.929Z,41.09
2022-08-05T18:43:31.666Z,41.62
2022-08-05T18:48:41.468Z,42.89
2022-08-05T18:53:50.102Z,43.79
2022-08-05T18:58:54.943Z,44.23
2022-08-05T19:04:02.765Z,44.02
2022-08-05T19:09:07.591Z,44.73
2022-08-05T19:14:44.717Z,44.20
2022-08-05T19:19:31.422Z,44.17
2022-08-05T19:24:34.337Z,44.85
2022-08-05T19:29:38.089Z,45.07
2022-08-05T19:34:40.819Z,45.25
2022-08-05T19:39:50.555Z,45.14
2022-08-05T19:44:53.660Z,45.68
2022-08-05T19:50:01.527Z,45.77
2022-08-05T19:55:07.275Z,45.37
2022-08-05T20:00:25.851Z,44.75
2022-08-05T20:05:49.804Z,44.87
2022-08-05T20:10:54.226Z,44.84
2022-08-05T20:15:57.536Z,44.60
2022-08-05T20:21:01.043Z,44.73
2022-08-05T20:26:04.005Z,45.20
2022-08-05T20:31:12.121Z,45.49
2022-08-05T20:36:16.422Z,46.02
2022-08-05T20:41:23.912Z,46.31
2022-08-05T20:46:37.729Z,46.68
2022-08-05T20:51:39.850Z,46.99
2022-08-05T20:56:43.761Z,47.32
2022-08-05T21:01:51.772Z,47.52
2022-08-05T21:06:55.086Z,48.14
2022-08-05T21:12:09.066Z,48.43
2022-08-05T21:17:13.111Z,48.92
2022-08-05T21:22:23.224Z,49.04
2022-08-05T21:27:27.996Z,49.29
2022-08-05T21:32:40.315Z,49.45
2022-08-05T21:37:53.052Z,49.48
2022-08-05T21:42:55.278Z,50.08
2022-08-05T21:48:01.047Z,50.30
2022-08-05T21:53:08.373Z,50.76
2022-08-05T21:58:19.589Z,50.78
2022-08-05T22:03:48.560Z,51.12
2022-08-05T22:08:43.005Z,51.35
2022-08-05T22:14:33.883Z,51.69
2022-08-05T22:19:15.212Z,51.91
2022-08-05T22:24:52.208Z,52.09
2022-08-05T22:29:55.100Z,52.44
2022-08-05T22:34:57.654Z,52.77
2022-08-05T22:40:03.171Z,53.01
2022-08-05T22:45:26.549Z,53.03
2022-08-05T22:50:29.135Z,53.65
2022-08-05T22:55:56.722Z,54.11
2022-08-05T23:00:52.579Z,54.24
2022-08-05T23:05:58.624Z,54.07
2022-08-05T23:11:02.523Z,53.45
2022-08-05T23:16:05.007Z,52.98
2022-08-05T23:21:06.827Z,52.99
2022-08-05T23:26:11.850Z,53.32
2022-08-05T23:31:17.577Z,53.59
2022-08-05T23:36:19.470Z,53.55
2022-08-05T23:41:21.081Z,53.99
2022-08-05T23:46:23.438Z,54.34
2022-08-05T23:51:25.010Z,54.61
2022-08-05T23:56:27.770Z,54.69
